Главная страница
METAR-TAF:

METAR-TAF

Аэропорты :

Коутсвилл, Пенсильвания, США

широта: 39-58-44N, долгота: 075-51-56W, высота над уровнем моря: 201 м

Текущие метеонаблюдения

Эта сводка был подготовлена 29 минут назад, в 12:15 UTC
Ветер 13 Узел от западный с порывами до 18 Узел, изменяющийся между западный-юго-западный и западно-северо-западный
Температура 10°C
Влажность 62%
Давление 999 hPa
Видимость: 16.1 км
Рассеянная облачность на высоте 4200 фута
Рассеянная облачность на высоте 4800 фута

METAR: KMQS 171215Z AUTO 27013G18KT 240V300 10SM BKN042 BKN048 10/03 A2949 RMK AO2

Время: 08:44 (12:44 UTC)


TAF: отсутствует

Метеонаблюдения и прогнозы для более 4000 аэропортов (сводки METAR и TAF).

Имеющиеся станции представлены на карте желтыми и красными точками.

Чтобы увидеть название станции, наведите на нее мышь.

Затем щелкните, чтобы увидеть метеонаблюдения и метеопрогнозы.

Управление картой: чтобы увеличить масштаб, щелкните зеленые кнопки с черным крестиком; чтобы уменьшить масштаб, щелкните зеленую кнопку с тире; для просмотра соседних карт щелкайте зеленые стрелки.


METAR-TAF: